sensor_id;sensor_type;location;lat;lon;timestamp;temperature;humidity
13174;DHT22;6652;48.802;9.190;2023-11-22T00:02:16;8.30;99.90
13174;DHT22;6652;48.802;9.190;2023-11-22T00:04:43;8.00;99.90
13174;DHT22;6652;48.802;9.190;2023-11-22T00:07:10;8.30;99.90
13174;DHT22;6652;48.802;9.190;2023-11-22T00:09:38;8.20;99.90
13174;DHT22;6652;48.802;9.190;2023-11-22T00:12:06;8.50;99.90
13174;DHT22;6652;48.802;9.190;2023-11-22T00:14:33;7.20;99.90
13174;DHT22;6652;48.802;9.190;2023-11-22T00:17:01;7.10;99.90
13174;DHT22;6652;48.802;9.190;2023-11-22T00:19:28;6.90;99.90
13174;DHT22;6652;48.802;9.190;2023-11-22T00:21:56;6.90;99.90
13174;DHT22;6652;48.802;9.190;2023-11-22T00:24:23;6.80;99.90
13174;DHT22;6652;48.802;9.190;2023-11-22T00:26:51;6.70;99.90
13174;DHT22;6652;48.802;9.190;2023-11-22T00:29:17;6.60;99.90
13174;DHT22;6652;48.802;9.190;2023-11-22T00:31:44;6.60;99.90
13174;DHT22;6652;48.802;9.190;2023-11-22T00:34:11;6.60;99.90
13174;DHT22;6652;48.802;9.190;2023-11-22T00:36:38;5.90;99.90
13174;DHT22;6652;48.802;9.190;2023-11-22T00:39:06;6.60;99.90
13174;DHT22;6652;48.802;9.190;2023-11-22T00:41:33;6.50;99.90
13174;DHT22;6652;48.802;9.190;2023-11-22T00:44:02;6.50;99.90
13174;DHT22;6652;48.802;9.190;2023-11-22T00:46:31;6.60;99.90
13174;DHT22;6652;48.802;9.190;2023-11-22T00:48:58;6.50;99.90
13174;DHT22;6652;48.802;9.190;2023-11-22T00:51:24;7.30;99.90
13174;DHT22;6652;48.802;9.190;2023-11-22T00:53:51;6.40;99.90
13174;DHT22;6652;48.802;9.190;2023-11-22T00:56:18;6.70;99.90
13174;DHT22;6652;48.802;9.190;2023-11-22T00:58:45;6.30;99.90
13174;DHT22;6652;48.802;9.190;2023-11-22T01:01:14;6.30;99.90
13174;DHT22;6652;48.802;9.190;2023-11-22T01:03:41;6.20;99.90
13174;DHT22;6652;48.802;9.190;2023-11-22T01:06:08;6.20;99.90
13174;DHT22;6652;48.802;9.190;2023-11-22T01:08:35;6.20;99.90
13174;DHT22;6652;48.802;9.190;2023-11-22T01:11:03;6.10;99.90
13174;DHT22;6652;48.802;9.190;2023-11-22T01:13:31;6.00;99.90
13174;DHT22;6652;48.802;9.190;2023-11-22T01:15:58;6.00;99.90
13174;DHT22;6652;48.802;9.190;2023-11-22T01:18:27;6.00;99.90
13174;DHT22;6652;48.802;9.190;2023-11-22T01:20:53;6.00;99.90
13174;DHT22;6652;48.802;9.190;2023-11-22T01:23:20;5.90;99.90
13174;DHT22;6652;48.802;9.190;2023-11-22T01:25:47;6.70;99.90
13174;DHT22;6652;48.802;9.190;2023-11-22T01:28:15;5.90;99.90
13174;DHT22;6652;48.802;9.190;2023-11-22T01:30:42;5.80;99.90
13174;DHT22;6652;48.802;9.190;2023-11-22T01:33:11;5.80;99.90
13174;DHT22;6652;48.802;9.190;2023-11-22T01:35:39;5.80;99.90
13174;DHT22;6652;48.802;9.190;2023-11-22T01:38:06;5.80;99.90
13174;DHT22;6652;48.802;9.190;2023-11-22T01:40:33;5.80;99.90
13174;DHT22;6652;48.802;9.190;2023-11-22T01:43:00;5.70;99.90
13174;DHT22;6652;48.802;9.190;2023-11-22T01:45:29;5.70;99.90
13174;DHT22;6652;48.802;9.190;2023-11-22T01:47:56;5.80;99.90
13174;DHT22;6652;48.802;9.190;2023-11-22T01:50:23;5.70;99.90
13174;DHT22;6652;48.802;9.190;2023-11-22T01:52:51;5.70;99.90
13174;DHT22;6652;48.802;9.190;2023-11-22T01:55:18;5.60;99.90
13174;DHT22;6652;48.802;9.190;2023-11-22T01:57:45;5.60;99.90
13174;DHT22;6652;48.802;9.190;2023-11-22T02:00:12;5.50;99.90
13174;DHT22;6652;48.802;9.190;2023-11-22T02:02:40;5.50;99.90
13174;DHT22;6652;48.802;9.190;2023-11-22T02:05:08;5.50;99.90
13174;DHT22;6652;48.802;9.190;2023-11-22T02:07:37;5.50;99.90
13174;DHT22;6652;48.802;9.190;2023-11-22T02:10:08;5.50;99.90
13174;DHT22;6652;48.802;9.190;2023-11-22T02:12:35;5.50;99.90
13174;DHT22;6652;48.802;9.190;2023-11-22T02:15:03;5.40;99.90
13174;DHT22;6652;48.802;9.190;2023-11-22T02:17:30;5.40;99.90
13174;DHT22;6652;48.802;9.190;2023-11-22T02:19:59;5.30;99.90
13174;DHT22;6652;48.802;9.190;2023-11-22T02:24:56;5.30;99.90
13174;DHT22;6652;48.802;9.190;2023-11-22T02:27:22;5.30;99.90
13174;DHT22;6652;48.802;9.190;2023-11-22T02:29:49;5.30;99.90
13174;DHT22;6652;48.802;9.190;2023-11-22T02:32:16;5.40;99.90
13174;DHT22;6652;48.802;9.190;2023-11-22T02:34:44;5.40;99.90
13174;DHT22;6652;48.802;9.190;2023-11-22T02:37:11;5.40;99.90
13174;DHT22;6652;48.802;9.190;2023-11-22T02:39:49;5.40;99.90
13174;DHT22;6652;48.802;9.190;2023-11-22T02:42:22;5.30;99.90
13174;DHT22;6652;48.802;9.190;2023-11-22T02:44:49;5.20;99.90
13174;DHT22;6652;48.802;9.190;2023-11-22T02:47:15;5.20;99.90
13174;DHT22;6652;48.802;9.190;2023-11-22T02:49:42;5.20;99.90
13174;DHT22;6652;48.802;9.190;2023-11-22T02:52:09;5.20;99.90
13174;DHT22;6652;48.802;9.190;2023-11-22T02:54:37;5.20;99.90
13174;DHT22;6652;48.802;9.190;2023-11-22T02:57:04;5.10;99.90
13174;DHT22;6652;48.802;9.190;2023-11-22T02:59:32;5.10;99.90
13174;DHT22;6652;48.802;9.190;2023-11-22T03:01:59;5.00;99.90
13174;DHT22;6652;48.802;9.190;2023-11-22T03:04:24;4.90;99.90
13174;DHT22;6652;48.802;9.190;2023-11-22T03:06:51;4.90;99.90
13174;DHT22;6652;48.802;9.190;2023-11-22T03:09:18;4.90;99.90
13174;DHT22;6652;48.802;9.190;2023-11-22T03:11:45;4.80;99.90
13174;DHT22;6652;48.802;9.190;2023-11-22T03:14:11;4.80;99.90
13174;DHT22;6652;48.802;9.190;2023-11-22T03:16:40;4.70;99.90
13174;DHT22;6652;48.802;9.190;2023-11-22T03:19:08;4.70;99.90
13174;DHT22;6652;48.802;9.190;2023-11-22T03:21:36;4.60;99.90
13174;DHT22;6652;48.802;9.190;2023-11-22T03:24:03;4.50;99.90
13174;DHT22;6652;48.802;9.190;2023-11-22T03:26:30;4.60;99.90
13174;DHT22;6652;48.802;9.190;2023-11-22T03:28:57;4.60;99.90
13174;DHT22;6652;48.802;9.190;2023-11-22T03:31:23;4.60;99.90
13174;DHT22;6652;48.802;9.190;2023-11-22T03:33:51;4.60;99.90
13174;DHT22;6652;48.802;9.190;2023-11-22T03:36:20;4.60;99.90
13174;DHT22;6652;48.802;9.190;2023-11-22T03:38:49;4.70;99.90
13174;DHT22;6652;48.802;9.190;2023-11-22T03:41:16;4.70;99.90
13174;DHT22;6652;48.802;9.190;2023-11-22T03:43:43;4.80;99.90
13174;DHT22;6652;48.802;9.190;2023-11-22T03:46:10;4.70;99.90
13174;DHT22;6652;48.802;9.190;2023-11-22T03:48:37;4.70;99.90
13174;DHT22;6652;48.802;9.190;2023-11-22T03:51:05;4.70;99.90
13174;DHT22;6652;48.802;9.190;2023-11-22T03:53:32;4.70;99.90
13174;DHT22;6652;48.802;9.190;2023-11-22T03:55:58;4.70;99.90
13174;DHT22;6652;48.802;9.190;2023-11-22T03:58:25;4.80;99.90
13174;DHT22;6652;48.802;9.190;2023-11-22T04:00:52;4.70;99.90
13174;DHT22;6652;48.802;9.190;2023-11-22T04:03:19;4.70;99.90
13174;DHT22;6652;48.802;9.190;2023-11-22T04:05:46;4.80;99.90
13174;DHT22;6652;48.802;9.190;2023-11-22T04:08:14;4.80;99.90
13174;DHT22;6652;48.802;9.190;2023-11-22T04:10:40;4.80;99.90
13174;DHT22;6652;48.802;9.190;2023-11-22T04:13:08;4.70;99.90
13174;DHT22;6652;48.802;9.190;2023-11-22T04:15:34;4.70;99.90
13174;DHT22;6652;48.802;9.190;2023-11-22T04:18:01;4.70;99.90
13174;DHT22;6652;48.802;9.190;2023-11-22T04:20:28;4.90;99.90
13174;DHT22;6652;48.802;9.190;2023-11-22T04:22:55;4.70;99.90
13174;DHT22;6652;48.802;9.190;2023-11-22T04:25:23;4.70;99.90
13174;DHT22;6652;48.802;9.190;2023-11-22T04:27:50;4.60;99.90
13174;DHT22;6652;48.802;9.190;2023-11-22T04:30:17;4.60;99.90
13174;DHT22;6652;48.802;9.190;2023-11-22T04:32:44;4.60;99.90
13174;DHT22;6652;48.802;9.190;2023-11-22T04:35:10;4.60;99.90
13174;DHT22;6652;48.802;9.190;2023-11-22T04:37:38;4.60;99.90
13174;DHT22;6652;48.802;9.190;2023-11-22T04:40:07;4.60;99.90
13174;DHT22;6652;48.802;9.190;2023-11-22T04:42:35;4.60;99.90
13174;DHT22;6652;48.802;9.190;2023-11-22T04:45:03;4.60;99.90
13174;DHT22;6652;48.802;9.190;2023-11-22T04:47:31;4.70;99.90
13174;DHT22;6652;48.802;9.190;2023-11-22T04:49:58;4.70;99.90
13174;DHT22;6652;48.802;9.190;2023-11-22T04:52:24;4.70;99.90
13174;DHT22;6652;48.802;9.190;2023-11-22T04:54:51;4.70;99.90
13174;DHT22;6652;48.802;9.190;2023-11-22T04:57:18;4.60;99.90
13174;DHT22;6652;48.802;9.190;2023-11-22T04:59:47;4.70;99.90
13174;DHT22;6652;48.802;9.190;2023-11-22T05:02:13;4.60;99.90
13174;DHT22;6652;48.802;9.190;2023-11-22T05:04:41;4.60;99.90
13174;DHT22;6652;48.802;9.190;2023-11-22T05:07:09;4.60;99.90
13174;DHT22;6652;48.802;9.190;2023-11-22T05:09:36;4.60;99.90
13174;DHT22;6652;48.802;9.190;2023-11-22T05:12:03;4.60;99.90
13174;DHT22;6652;48.802;9.190;2023-11-22T05:14:29;4.50;99.90
13174;DHT22;6652;48.802;9.190;2023-11-22T05:16:58;4.60;99.90
13174;DHT22;6652;48.802;9.190;2023-11-22T05:19:24;4.70;99.90
13174;DHT22;6652;48.802;9.190;2023-11-22T05:21:51;4.50;99.90
13174;DHT22;6652;48.802;9.190;2023-11-22T05:24:18;4.60;99.90
13174;DHT22;6652;48.802;9.190;2023-11-22T05:26:45;4.60;99.90
13174;DHT22;6652;48.802;9.190;2023-11-22T05:29:11;4.60;99.90
13174;DHT22;6652;48.802;9.190;2023-11-22T05:31:39;4.60;99.90
13174;DHT22;6652;48.802;9.190;2023-11-22T05:34:07;4.60;99.90
13174;DHT22;6652;48.802;9.190;2023-11-22T05:36:34;4.60;99.90
13174;DHT22;6652;48.802;9.190;2023-11-22T05:39:00;4.60;99.90
13174;DHT22;6652;48.802;9.190;2023-11-22T05:41:29;4.50;99.90
13174;DHT22;6652;48.802;9.190;2023-11-22T05:43:56;4.40;99.90
13174;DHT22;6652;48.802;9.190;2023-11-22T05:46:24;4.40;99.90
13174;DHT22;6652;48.802;9.190;2023-11-22T05:48:51;4.40;99.90
13174;DHT22;6652;48.802;9.190;2023-11-22T05:51:19;4.50;99.90
13174;DHT22;6652;48.802;9.190;2023-11-22T05:53:46;4.40;99.90
13174;DHT22;6652;48.802;9.190;2023-11-22T05:56:13;4.50;99.90
13174;DHT22;6652;48.802;9.190;2023-11-22T05:58:40;4.50;99.90
13174;DHT22;6652;48.802;9.190;2023-11-22T06:01:07;4.50;99.90
13174;DHT22;6652;48.802;9.190;2023-11-22T06:03:35;4.50;99.90
13174;DHT22;6652;48.802;9.190;2023-11-22T06:06:02;4.50;99.90
13174;DHT22;6652;48.802;9.190;2023-11-22T06:08:31;4.40;99.90
13174;DHT22;6652;48.802;9.190;2023-11-22T06:10:57;4.50;99.90
13174;DHT22;6652;48.802;9.190;2023-11-22T06:13:25;4.50;99.90
13174;DHT22;6652;48.802;9.190;2023-11-22T06:15:52;4.50;99.90
13174;DHT22;6652;48.802;9.190;2023-11-22T06:18:19;4.50;99.90
13174;DHT22;6652;48.802;9.190;2023-11-22T06:20:45;4.50;99.90
13174;DHT22;6652;48.802;9.190;2023-11-22T06:23:13;4.50;99.90
13174;DHT22;6652;48.802;9.190;2023-11-22T06:25:42;4.50;99.90
13174;DHT22;6652;48.802;9.190;2023-11-22T06:28:09;4.40;99.90
13174;DHT22;6652;48.802;9.190;2023-11-22T06:30:36;4.40;99.90
13174;DHT22;6652;48.802;9.190;2023-11-22T06:33:03;4.40;99.90
13174;DHT22;6652;48.802;9.190;2023-11-22T06:35:29;4.40;99.90
13174;DHT22;6652;48.802;9.190;2023-11-22T06:37:56;4.40;99.90
13174;DHT22;6652;48.802;9.190;2023-11-22T06:40:23;4.30;99.90
13174;DHT22;6652;48.802;9.190;2023-11-22T06:42:51;4.30;99.90
13174;DHT22;6652;48.802;9.190;2023-11-22T06:45:18;4.30;99.90
13174;DHT22;6652;48.802;9.190;2023-11-22T06:47:47;4.20;99.90
13174;DHT22;6652;48.802;9.190;2023-11-22T06:50:16;4.20;99.90
13174;DHT22;6652;48.802;9.190;2023-11-22T06:52:43;4.20;99.90
13174;DHT22;6652;48.802;9.190;2023-11-22T06:55:12;4.20;99.90
13174;DHT22;6652;48.802;9.190;2023-11-22T06:57:39;4.20;99.90
13174;DHT22;6652;48.802;9.190;2023-11-22T07:00:08;4.20;99.90
13174;DHT22;6652;48.802;9.190;2023-11-22T07:02:35;4.20;99.90
13174;DHT22;6652;48.802;9.190;2023-11-22T07:05:02;4.20;99.90
13174;DHT22;6652;48.802;9.190;2023-11-22T07:07:32;4.20;99.90
13174;DHT22;6652;48.802;9.190;2023-11-22T07:09:59;4.30;99.90
13174;DHT22;6652;48.802;9.190;2023-11-22T07:12:26;4.20;99.90
13174;DHT22;6652;48.802;9.190;2023-11-22T07:14:53;4.20;99.90
13174;DHT22;6652;48.802;9.190;2023-11-22T07:17:21;4.10;99.90
13174;DHT22;6652;48.802;9.190;2023-11-22T07:19:48;4.20;99.90
13174;DHT22;6652;48.802;9.190;2023-11-22T07:22:17;4.10;99.90
13174;DHT22;6652;48.802;9.190;2023-11-22T07:24:45;4.10;99.90
13174;DHT22;6652;48.802;9.190;2023-11-22T07:27:13;4.10;99.90
13174;DHT22;6652;48.802;9.190;2023-11-22T07:29:40;4.00;99.90
13174;DHT22;6652;48.802;9.190;2023-11-22T07:32:07;4.00;99.90
13174;DHT22;6652;48.802;9.190;2023-11-22T07:34:38;4.00;99.90
13174;DHT22;6652;48.802;9.190;2023-11-22T07:37:06;3.90;99.90
13174;DHT22;6652;48.802;9.190;2023-11-22T07:39:33;3.90;99.90
13174;DHT22;6652;48.802;9.190;2023-11-22T07:42:01;3.90;99.90
13174;DHT22;6652;48.802;9.190;2023-11-22T07:44:28;3.90;99.90
13174;DHT22;6652;48.802;9.190;2023-11-22T07:46:58;3.90;99.90
13174;DHT22;6652;48.802;9.190;2023-11-22T07:49:25;3.90;99.90
13174;DHT22;6652;48.802;9.190;2023-11-22T07:51:54;3.90;99.90
13174;DHT22;6652;48.802;9.190;2023-11-22T07:54:22;3.80;99.90
13174;DHT22;6652;48.802;9.190;2023-11-22T07:56:49;3.80;99.90
13174;DHT22;6652;48.802;9.190;2023-11-22T07:59:15;3.70;99.90
13174;DHT22;6652;48.802;9.190;2023-11-22T08:01:42;3.80;99.90
13174;DHT22;6652;48.802;9.190;2023-11-22T08:04:10;3.80;99.90
13174;DHT22;6652;48.802;9.190;2023-11-22T08:06:37;3.70;99.90
13174;DHT22;6652;48.802;9.190;2023-11-22T08:09:05;3.80;99.90
13174;DHT22;6652;48.802;9.190;2023-11-22T08:11:34;3.70;99.90
13174;DHT22;6652;48.802;9.190;2023-11-22T08:14:01;3.80;99.90
13174;DHT22;6652;48.802;9.190;2023-11-22T08:16:28;3.70;99.90
13174;DHT22;6652;48.802;9.190;2023-11-22T08:18:55;3.80;99.90
13174;DHT22;6652;48.802;9.190;2023-11-22T08:21:22;3.80;99.90
13174;DHT22;6652;48.802;9.190;2023-11-22T08:23:49;3.90;99.90
13174;DHT22;6652;48.802;9.190;2023-11-22T08:26:17;3.90;99.90
13174;DHT22;6652;48.802;9.190;2023-11-22T08:28:44;3.80;99.90
13174;DHT22;6652;48.802;9.190;2023-11-22T08:31:11;3.80;99.90
13174;DHT22;6652;48.802;9.190;2023-11-22T08:33:38;3.80;99.90
13174;DHT22;6652;48.802;9.190;2023-11-22T08:36:06;3.80;99.90
13174;DHT22;6652;48.802;9.190;2023-11-22T08:38:33;3.70;99.90
13174;DHT22;6652;48.802;9.190;2023-11-22T08:41:01;3.70;99.90
13174;DHT22;6652;48.802;9.190;2023-11-22T08:43:30;3.70;99.90
13174;DHT22;6652;48.802;9.190;2023-11-22T08:45:57;3.80;99.90
13174;DHT22;6652;48.802;9.190;2023-11-22T08:48:25;3.80;99.90
13174;DHT22;6652;48.802;9.190;2023-11-22T08:50:53;3.80;99.90
13174;DHT22;6652;48.802;9.190;2023-11-22T08:53:21;3.70;99.90
13174;DHT22;6652;48.802;9.190;2023-11-22T08:55:48;3.70;99.90
13174;DHT22;6652;48.802;9.190;2023-11-22T08:58:15;3.60;99.90
13174;DHT22;6652;48.802;9.190;2023-11-22T09:00:43;3.60;99.90
13174;DHT22;6652;48.802;9.190;2023-11-22T09:03:10;3.70;99.90
13174;DHT22;6652;48.802;9.190;2023-11-22T09:05:38;3.80;99.90
13174;DHT22;6652;48.802;9.190;2023-11-22T09:08:06;4.00;99.90
13174;DHT22;6652;48.802;9.190;2023-11-22T09:10:38;3.80;99.90
13174;DHT22;6652;48.802;9.190;2023-11-22T09:13:06;3.80;99.90
13174;DHT22;6652;48.802;9.190;2023-11-22T09:15:33;3.90;99.90
13174;DHT22;6652;48.802;9.190;2023-11-22T09:18:02;3.90;99.90
13174;DHT22;6652;48.802;9.190;2023-11-22T09:20:29;4.00;99.90
13174;DHT22;6652;48.802;9.190;2023-11-22T09:22:57;4.00;99.90
13174;DHT22;6652;48.802;9.190;2023-11-22T09:25:24;4.20;99.90
13174;DHT22;6652;48.802;9.190;2023-11-22T09:27:54;4.00;99.90
13174;DHT22;6652;48.802;9.190;2023-11-22T09:30:25;4.00;99.90
13174;DHT22;6652;48.802;9.190;2023-11-22T09:33:05;4.00;99.90
13174;DHT22;6652;48.802;9.190;2023-11-22T09:35:33;4.10;99.90
13174;DHT22;6652;48.802;9.190;2023-11-22T09:38:01;4.10;99.90
13174;DHT22;6652;48.802;9.190;2023-11-22T09:40:28;4.10;99.90
13174;DHT22;6652;48.802;9.190;2023-11-22T09:42:57;4.10;99.90
13174;DHT22;6652;48.802;9.190;2023-11-22T09:45:25;4.10;99.90
13174;DHT22;6652;48.802;9.190;2023-11-22T09:47:52;4.10;99.90
13174;DHT22;6652;48.802;9.190;2023-11-22T09:50:33;4.10;99.90
13174;DHT22;6652;48.802;9.190;2023-11-22T09:53:02;4.10;99.90
13174;DHT22;6652;48.802;9.190;2023-11-22T09:55:34;4.10;99.90
13174;DHT22;6652;48.802;9.190;2023-11-22T09:58:03;4.10;99.90
13174;DHT22;6652;48.802;9.190;2023-11-22T10:00:32;4.20;99.90
13174;DHT22;6652;48.802;9.190;2023-11-22T10:02:58;4.20;99.90
13174;DHT22;6652;48.802;9.190;2023-11-22T10:05:27;4.20;99.90
13174;DHT22;6652;48.802;9.190;2023-11-22T10:07:54;4.30;99.90
13174;DHT22;6652;48.802;9.190;2023-11-22T10:10:21;4.30;99.90
13174;DHT22;6652;48.802;9.190;2023-11-22T10:12:53;4.40;99.90
13174;DHT22;6652;48.802;9.190;2023-11-22T10:15:22;4.30;99.90
13174;DHT22;6652;48.802;9.190;2023-11-22T10:17:54;4.40;99.90
13174;DHT22;6652;48.802;9.190;2023-11-22T10:20:23;4.40;99.90
13174;DHT22;6652;48.802;9.190;2023-11-22T10:22:52;4.40;99.90
13174;DHT22;6652;48.802;9.190;2023-11-22T10:32:13;4.60;99.90
13174;DHT22;6652;48.802;9.190;2023-11-22T10:34:39;4.60;99.90
13174;DHT22;6652;48.802;9.190;2023-11-22T10:37:06;4.60;99.90
13174;DHT22;6652;48.802;9.190;2023-11-22T10:39:36;4.60;99.90
13174;DHT22;6652;48.802;9.190;2023-11-22T10:42:05;4.70;99.90
13174;DHT22;6652;48.802;9.190;2023-11-22T10:44:34;4.60;99.90
13174;DHT22;6652;48.802;9.190;2023-11-22T10:47:04;4.60;99.90
13174;DHT22;6652;48.802;9.190;2023-11-22T10:49:33;4.40;99.90
13174;DHT22;6652;48.802;9.190;2023-11-22T10:52:01;4.40;99.90
13174;DHT22;6652;48.802;9.190;2023-11-22T10:54:30;4.40;99.90
13174;DHT22;6652;48.802;9.190;2023-11-22T10:56:59;4.50;99.90
13174;DHT22;6652;48.802;9.190;2023-11-22T10:59:28;5.20;99.90
13174;DHT22;6652;48.802;9.190;2023-11-22T11:01:59;4.60;99.90
13174;DHT22;6652;48.802;9.190;2023-11-22T11:04:33;4.80;99.90
13174;DHT22;6652;48.802;9.190;2023-11-22T11:07:02;4.80;99.90
13174;DHT22;6652;48.802;9.190;2023-11-22T11:09:31;4.80;99.90
13174;DHT22;6652;48.802;9.190;2023-11-22T11:12:00;4.90;99.90
13174;DHT22;6652;48.802;9.190;2023-11-22T11:14:29;5.00;99.90
13174;DHT22;6652;48.802;9.190;2023-11-22T11:16:56;5.00;99.90
13174;DHT22;6652;48.802;9.190;2023-11-22T11:19:24;5.00;99.90
13174;DHT22;6652;48.802;9.190;2023-11-22T11:21:51;5.10;99.90
13174;DHT22;6652;48.802;9.190;2023-11-22T11:24:18;5.10;99.90
13174;DHT22;6652;48.802;9.190;2023-11-22T11:26:48;5.10;99.90
13174;DHT22;6652;48.802;9.190;2023-11-22T11:29:32;5.10;99.90
13174;DHT22;6652;48.802;9.190;2023-11-22T11:31:59;4.90;99.90
13174;DHT22;6652;48.802;9.190;2023-11-22T11:34:28;4.90;99.90
13174;DHT22;6652;48.802;9.190;2023-11-22T11:36:56;5.30;99.90
13174;DHT22;6652;48.802;9.190;2023-11-22T11:39:26;4.80;99.90
13174;DHT22;6652;48.802;9.190;2023-11-22T11:42:08;4.80;99.90
13174;DHT22;6652;48.802;9.190;2023-11-22T11:44:36;4.80;99.90
13174;DHT22;6652;48.802;9.190;2023-11-22T11:47:09;4.70;99.90
13174;DHT22;6652;48.802;9.190;2023-11-22T11:49:37;4.80;99.90
13174;DHT22;6652;48.802;9.190;2023-11-22T11:52:04;4.70;99.90
13174;DHT22;6652;48.802;9.190;2023-11-22T11:54:31;4.70;99.90
13174;DHT22;6652;48.802;9.190;2023-11-22T11:56:58;4.60;99.90
13174;DHT22;6652;48.802;9.190;2023-11-22T11:59:26;4.60;99.90
13174;DHT22;6652;48.802;9.190;2023-11-22T12:01:54;4.70;99.90
13174;DHT22;6652;48.802;9.190;2023-11-22T12:04:23;4.70;99.90
13174;DHT22;6652;48.802;9.190;2023-11-22T12:06:52;4.70;99.90
13174;DHT22;6652;48.802;9.190;2023-11-22T12:09:22;4.80;99.90
13174;DHT22;6652;48.802;9.190;2023-11-22T12:11:51;4.70;99.90
13174;DHT22;6652;48.802;9.190;2023-11-22T12:14:19;4.70;99.90
13174;DHT22;6652;48.802;9.190;2023-11-22T12:16:46;4.70;99.90
13174;DHT22;6652;48.802;9.190;2023-11-22T12:19:22;5.20;99.90
13174;DHT22;6652;48.802;9.190;2023-11-22T12:21:49;4.60;99.90
13174;DHT22;6652;48.802;9.190;2023-11-22T12:24:16;4.60;99.90
13174;DHT22;6652;48.802;9.190;2023-11-22T12:26:45;4.60;99.90
13174;DHT22;6652;48.802;9.190;2023-11-22T12:29:12;4.50;99.90
13174;DHT22;6652;48.802;9.190;2023-11-22T12:31:44;4.50;99.90
13174;DHT22;6652;48.802;9.190;2023-11-22T12:34:13;4.60;99.90
13174;DHT22;6652;48.802;9.190;2023-11-22T12:36:42;4.70;99.90
13174;DHT22;6652;48.802;9.190;2023-11-22T12:39:09;4.60;99.90
13174;DHT22;6652;48.802;9.190;2023-11-22T12:41:43;4.60;99.90
13174;DHT22;6652;48.802;9.190;2023-11-22T12:44:11;4.60;99.90
13174;DHT22;6652;48.802;9.190;2023-11-22T12:46:49;4.40;99.90
13174;DHT22;6652;48.802;9.190;2023-11-22T12:49:23;4.50;99.90
13174;DHT22;6652;48.802;9.190;2023-11-22T12:51:54;4.50;99.90
13174;DHT22;6652;48.802;9.190;2023-11-22T12:54:21;4.60;99.90
13174;DHT22;6652;48.802;9.190;2023-11-22T12:56:49;4.60;99.90
13174;DHT22;6652;48.802;9.190;2023-11-22T12:59:17;4.60;99.90
13174;DHT22;6652;48.802;9.190;2023-11-22T13:01:44;4.60;99.90
13174;DHT22;6652;48.802;9.190;2023-11-22T13:04:11;4.60;99.90
13174;DHT22;6652;48.802;9.190;2023-11-22T13:06:40;4.60;99.90
13174;DHT22;6652;48.802;9.190;2023-11-22T13:09:08;4.60;99.90
13174;DHT22;6652;48.802;9.190;2023-11-22T13:11:40;4.60;99.90
13174;DHT22;6652;48.802;9.190;2023-11-22T13:14:08;4.60;99.90
13174;DHT22;6652;48.802;9.190;2023-11-22T13:16:34;4.60;99.90
13174;DHT22;6652;48.802;9.190;2023-11-22T13:19:04;4.60;99.90
13174;DHT22;6652;48.802;9.190;2023-11-22T13:21:31;4.50;99.90
13174;DHT22;6652;48.802;9.190;2023-11-22T13:23:58;4.60;99.90
13174;DHT22;6652;48.802;9.190;2023-11-22T13:26:27;4.60;99.90
13174;DHT22;6652;48.802;9.190;2023-11-22T13:28:53;4.50;99.90
13174;DHT22;6652;48.802;9.190;2023-11-22T13:31:21;4.50;99.90
13174;DHT22;6652;48.802;9.190;2023-11-22T13:33:48;4.60;99.90
13174;DHT22;6652;48.802;9.190;2023-11-22T13:36:16;4.60;99.90
13174;DHT22;6652;48.802;9.190;2023-11-22T13:38:44;4.50;99.90
13174;DHT22;6652;48.802;9.190;2023-11-22T13:41:11;4.50;99.90
13174;DHT22;6652;48.802;9.190;2023-11-22T13:43:39;4.40;99.90
13174;DHT22;6652;48.802;9.190;2023-11-22T13:46:07;4.50;99.90
13174;DHT22;6652;48.802;9.190;2023-11-22T13:48:35;4.50;99.90
13174;DHT22;6652;48.802;9.190;2023-11-22T13:51:02;4.50;99.90
13174;DHT22;6652;48.802;9.190;2023-11-22T13:53:29;4.40;99.90
13174;DHT22;6652;48.802;9.190;2023-11-22T13:56:00;4.90;99.90
13174;DHT22;6652;48.802;9.190;2023-11-22T13:58:33;5.00;99.90
13174;DHT22;6652;48.802;9.190;2023-11-22T14:01:01;4.50;99.90
13174;DHT22;6652;48.802;9.190;2023-11-22T14:03:31;4.50;99.90
13174;DHT22;6652;48.802;9.190;2023-11-22T14:05:58;4.50;99.90
13174;DHT22;6652;48.802;9.190;2023-11-22T14:08:25;4.40;99.90
13174;DHT22;6652;48.802;9.190;2023-11-22T14:14:14;4.50;99.90
13174;DHT22;6652;48.802;9.190;2023-11-22T14:16:45;4.50;99.90
13174;DHT22;6652;48.802;9.190;2023-11-22T14:19:14;4.50;99.90
13174;DHT22;6652;48.802;9.190;2023-11-22T14:21:41;4.40;99.90
13174;DHT22;6652;48.802;9.190;2023-11-22T14:24:08;4.50;99.90
13174;DHT22;6652;48.802;9.190;2023-11-22T14:26:35;4.40;99.90
13174;DHT22;6652;48.802;9.190;2023-11-22T14:29:02;4.40;99.90
13174;DHT22;6652;48.802;9.190;2023-11-22T14:31:31;4.30;99.90
13174;DHT22;6652;48.802;9.190;2023-11-22T14:33:59;4.30;99.90
13174;DHT22;6652;48.802;9.190;2023-11-22T14:36:26;4.40;99.90
13174;DHT22;6652;48.802;9.190;2023-11-22T14:38:53;4.40;99.90
13174;DHT22;6652;48.802;9.190;2023-11-22T14:41:22;4.30;99.90
13174;DHT22;6652;48.802;9.190;2023-11-22T14:43:49;4.30;99.90
13174;DHT22;6652;48.802;9.190;2023-11-22T14:46:16;4.20;99.90
13174;DHT22;6652;48.802;9.190;2023-11-22T14:48:43;4.10;99.90
13174;DHT22;6652;48.802;9.190;2023-11-22T14:51:13;4.20;99.90
13174;DHT22;6652;48.802;9.190;2023-11-22T14:53:40;4.10;99.90
13174;DHT22;6652;48.802;9.190;2023-11-22T14:56:10;4.20;99.90
13174;DHT22;6652;48.802;9.190;2023-11-22T14:58:36;4.20;99.90
13174;DHT22;6652;48.802;9.190;2023-11-22T15:01:04;4.20;99.90
13174;DHT22;6652;48.802;9.190;2023-11-22T15:03:34;4.20;99.90
13174;DHT22;6652;48.802;9.190;2023-11-22T15:06:01;4.30;99.90
13174;DHT22;6652;48.802;9.190;2023-11-22T15:08:29;4.30;99.90
13174;DHT22;6652;48.802;9.190;2023-11-22T15:10:58;4.30;99.90
13174;DHT22;6652;48.802;9.190;2023-11-22T15:13:24;4.30;99.90
13174;DHT22;6652;48.802;9.190;2023-11-22T15:15:53;4.30;99.90
13174;DHT22;6652;48.802;9.190;2023-11-22T15:18:22;4.30;99.90
13174;DHT22;6652;48.802;9.190;2023-11-22T15:20:50;4.50;99.90
13174;DHT22;6652;48.802;9.190;2023-11-22T15:23:16;4.70;99.90
13174;DHT22;6652;48.802;9.190;2023-11-22T15:25:46;4.30;99.90
13174;DHT22;6652;48.802;9.190;2023-11-22T15:28:13;4.30;99.90
13174;DHT22;6652;48.802;9.190;2023-11-22T15:30:47;4.30;99.90
13174;DHT22;6652;48.802;9.190;2023-11-22T15:33:14;4.30;99.90
13174;DHT22;6652;48.802;9.190;2023-11-22T15:35:41;4.40;99.90
13174;DHT22;6652;48.802;9.190;2023-11-22T15:38:08;4.30;99.90
13174;DHT22;6652;48.802;9.190;2023-11-22T15:40:34;4.30;99.90
13174;DHT22;6652;48.802;9.190;2023-11-22T15:43:03;4.30;99.90
13174;DHT22;6652;48.802;9.190;2023-11-22T15:45:30;4.40;99.90
13174;DHT22;6652;48.802;9.190;2023-11-22T15:47:57;4.20;99.90
13174;DHT22;6652;48.802;9.190;2023-11-22T15:50:25;4.20;99.90
13174;DHT22;6652;48.802;9.190;2023-11-22T15:52:53;4.30;99.90
13174;DHT22;6652;48.802;9.190;2023-11-22T15:55:20;4.30;99.90
13174;DHT22;6652;48.802;9.190;2023-11-22T15:57:46;4.30;99.90
13174;DHT22;6652;48.802;9.190;2023-11-22T16:00:15;4.30;99.90
13174;DHT22;6652;48.802;9.190;2023-11-22T16:02:42;4.30;99.90
13174;DHT22;6652;48.802;9.190;2023-11-22T16:05:09;4.30;99.90
13174;DHT22;6652;48.802;9.190;2023-11-22T16:07:38;4.30;99.90
13174;DHT22;6652;48.802;9.190;2023-11-22T16:10:06;4.20;99.90
13174;DHT22;6652;48.802;9.190;2023-11-22T16:12:34;4.20;99.90
13174;DHT22;6652;48.802;9.190;2023-11-22T16:15:00;4.30;99.90
13174;DHT22;6652;48.802;9.190;2023-11-22T16:17:29;4.20;99.90
13174;DHT22;6652;48.802;9.190;2023-11-22T16:19:57;4.20;99.90